Buckhannon, WV (26201)

6:03 PM EDT on August 25, 2016 (GMT -0400)
KWVBUCKH13 | | Change Station

Elev 1713 ft 38.94 °N, 80.21 °W | Updated 1 minute ago

Scattered Clouds
Scattered Clouds
83.5 °F
Feels Like 100 °F
N
2.2
Wind Variable Wind from West

Today
High -- | Low -- °F
--% Chance of Precip.
Yesterday
High -- | Low -- °F
Precip. -- in
Pressure 30.10 in
Visibility 10.0 miles
Clouds Few 3400 ft
Few 4700 ft
Scattered Clouds 6000 ft
Heat Index 100 °F
Dew Point 83 °F
Humidity 99%
Rainfall 0.25 in
Snow Depth Not available.
6:43 AM 8:01 PM
Last Quarter, 41% visible
METAR KEKN 252151Z AUTO 26005KT 10SM FEW034 FEW047 SCT060 29/21 A3014 RMK AO2 SLP193 T02890206 TSNO
Pressure 30.10 in
Visibility 10.0 miles
Clouds Few 3400 ft
Few 4700 ft
Scattered Clouds 6000 ft
Heat Index 100 °F
Dew Point 83 °F
Humidity 99%
Rainfall 0.25 in
Snow Depth Not available.
6:43 AM 8:01 PM
Last Quarter, 41% visible
METAR KEKN 252151Z AUTO 26005KT 10SM FEW034 FEW047 SCT060 29/21 A3014 RMK AO2 SLP193 T02890206 TSNO
A tropical disturbance pushing toward the Bahamas, is expected to develop into a tropical depression or storm, and will likely target Florida and the Gulf Coast this weekend into next week.

Right now, the disturbance remains a broad area of low pressure pushing through the Dominican Republic and Haiti, headed toward the southeast Bahamas. Rainfall totals over 3 inches (with locally higher amounts) are expected in HispaƱiola, particularly over elevated terrain.

10-Day Weather Forecast

Almanac

Astronomy

Aug. 25, 2016 Rise Set
Actual Time
Civil Twilight
Nautical Twilight
Astronomical Twilight
Moon
Length of Visible Light
Length of Day
Tomorrow will be .
, % of the Moon is Illuminated

Today's Extremes

State Highs State Lows

Community

WunderPhotos

Upload Photos

1,934,951 photos uploaded!

WunderBlog® & News

Nearby

Air Quality

  Air Quality AQ Index Pollutant
Not available.

Snow Depth

Station Depth Elevation

Earthquake Activity

City Distance Mag. Time & Date
Minimum magnitude displayed is 2.5.

Coastal Water Temperatures

Place Temperature

Stations

Nearby Weather Stations

Station Location Temp. Windchill Dew Point Humidity Wind Precip. Elev Updated Type
                   

Watches & Warnings

There are currently no watches in effect.